sensor_id;sensor_type;location;lat;lon;timestamp;temperature;humidity
18613;DHT22;9436;52.152;21.032;2022-08-24T00:02:11;21.80;99.90
18613;DHT22;9436;52.152;21.032;2022-08-24T00:04:38;21.80;99.90
18613;DHT22;9436;52.152;21.032;2022-08-24T00:07:05;21.80;99.90
18613;DHT22;9436;52.152;21.032;2022-08-24T00:09:34;21.80;99.90
18613;DHT22;9436;52.152;21.032;2022-08-24T00:12:01;21.80;99.90
18613;DHT22;9436;52.152;21.032;2022-08-24T00:14:31;21.70;99.90
18613;DHT22;9436;52.152;21.032;2022-08-24T00:16:58;21.70;99.90
18613;DHT22;9436;52.152;21.032;2022-08-24T00:19:26;21.70;99.90
18613;DHT22;9436;52.152;21.032;2022-08-24T00:21:53;21.60;99.90
18613;DHT22;9436;52.152;21.032;2022-08-24T00:24:21;21.60;99.90
18613;DHT22;9436;52.152;21.032;2022-08-24T00:26:48;21.60;99.90
18613;DHT22;9436;52.152;21.032;2022-08-24T00:29:15;21.60;99.90
18613;DHT22;9436;52.152;21.032;2022-08-24T00:31:44;21.60;99.90
18613;DHT22;9436;52.152;21.032;2022-08-24T00:34:11;21.60;99.90
18613;DHT22;9436;52.152;21.032;2022-08-24T00:36:38;21.60;99.90
18613;DHT22;9436;52.152;21.032;2022-08-24T00:39:07;21.50;99.90
18613;DHT22;9436;52.152;21.032;2022-08-24T00:41:34;21.50;99.90
18613;DHT22;9436;52.152;21.032;2022-08-24T00:44:05;21.50;99.90
18613;DHT22;9436;52.152;21.032;2022-08-24T00:46:40;21.50;99.90
18613;DHT22;9436;52.152;21.032;2022-08-24T00:49:13;21.50;99.90
18613;DHT22;9436;52.152;21.032;2022-08-24T00:51:49;21.50;99.90
18613;DHT22;9436;52.152;21.032;2022-08-24T00:54:22;21.50;99.90
18613;DHT22;9436;52.152;21.032;2022-08-24T00:56:58;21.50;99.90
18613;DHT22;9436;52.152;21.032;2022-08-24T00:59:29;21.40;99.90
18613;DHT22;9436;52.152;21.032;2022-08-24T01:01:58;21.40;99.90
18613;DHT22;9436;52.152;21.032;2022-08-24T01:04:34;21.40;99.90
18613;DHT22;9436;52.152;21.032;2022-08-24T01:07:04;21.40;99.90
18613;DHT22;9436;52.152;21.032;2022-08-24T01:09:31;21.40;99.90
18613;DHT22;9436;52.152;21.032;2022-08-24T01:11:58;21.40;99.90
18613;DHT22;9436;52.152;21.032;2022-08-24T01:14:25;21.40;99.90
18613;DHT22;9436;52.152;21.032;2022-08-24T01:16:52;21.30;99.90
18613;DHT22;9436;52.152;21.032;2022-08-24T01:19:42;21.30;99.90
18613;DHT22;9436;52.152;21.032;2022-08-24T01:22:21;21.30;99.90
18613;DHT22;9436;52.152;21.032;2022-08-24T01:24:51;21.30;99.90
18613;DHT22;9436;52.152;21.032;2022-08-24T01:27:18;21.20;99.90
18613;DHT22;9436;52.152;21.032;2022-08-24T01:29:46;21.20;99.90
18613;DHT22;9436;52.152;21.032;2022-08-24T01:32:13;21.20;99.90
18613;DHT22;9436;52.152;21.032;2022-08-24T01:34:40;21.10;99.90
18613;DHT22;9436;52.152;21.032;2022-08-24T01:37:09;21.10;99.90
18613;DHT22;9436;52.152;21.032;2022-08-24T01:39:39;21.10;99.90
18613;DHT22;9436;52.152;21.032;2022-08-24T01:42:10;21.10;99.90
18613;DHT22;9436;52.152;21.032;2022-08-24T01:44:39;21.10;99.90
18613;DHT22;9436;52.152;21.032;2022-08-24T01:47:08;21.10;99.90
18613;DHT22;9436;52.152;21.032;2022-08-24T01:49:39;21.10;99.90
18613;DHT22;9436;52.152;21.032;2022-08-24T01:52:08;21.10;99.90
18613;DHT22;9436;52.152;21.032;2022-08-24T01:54:35;21.10;99.90
18613;DHT22;9436;52.152;21.032;2022-08-24T01:57:04;21.10;99.90
18613;DHT22;9436;52.152;21.032;2022-08-24T01:59:32;21.00;99.90
18613;DHT22;9436;52.152;21.032;2022-08-24T02:02:03;20.90;99.90
18613;DHT22;9436;52.152;21.032;2022-08-24T02:04:33;21.00;99.90
18613;DHT22;9436;52.152;21.032;2022-08-24T02:07:00;21.00;99.90
18613;DHT22;9436;52.152;21.032;2022-08-24T02:09:27;21.10;99.90
18613;DHT22;9436;52.152;21.032;2022-08-24T02:11:54;21.10;99.90
18613;DHT22;9436;52.152;21.032;2022-08-24T02:14:21;21.10;99.90
18613;DHT22;9436;52.152;21.032;2022-08-24T02:16:49;20.90;99.90
18613;DHT22;9436;52.152;21.032;2022-08-24T02:19:16;21.00;99.90
18613;DHT22;9436;52.152;21.032;2022-08-24T02:21:43;20.90;99.90
18613;DHT22;9436;52.152;21.032;2022-08-24T02:24:11;21.00;99.90
18613;DHT22;9436;52.152;21.032;2022-08-24T02:26:38;20.90;99.90
18613;DHT22;9436;52.152;21.032;2022-08-24T02:29:05;21.00;99.90
18613;DHT22;9436;52.152;21.032;2022-08-24T02:31:33;21.00;99.90
18613;DHT22;9436;52.152;21.032;2022-08-24T02:34:03;20.90;99.90
18613;DHT22;9436;52.152;21.032;2022-08-24T02:36:30;20.90;99.90
18613;DHT22;9436;52.152;21.032;2022-08-24T02:38:57;20.90;99.90
18613;DHT22;9436;52.152;21.032;2022-08-24T02:41:25;20.90;99.90
18613;DHT22;9436;52.152;21.032;2022-08-24T02:43:52;20.90;99.90
18613;DHT22;9436;52.152;21.032;2022-08-24T02:46:21;20.90;99.90
18613;DHT22;9436;52.152;21.032;2022-08-24T02:48:48;20.90;99.90
18613;DHT22;9436;52.152;21.032;2022-08-24T02:51:20;20.80;99.90
18613;DHT22;9436;52.152;21.032;2022-08-24T02:53:48;20.80;99.90
18613;DHT22;9436;52.152;21.032;2022-08-24T02:56:15;20.80;99.90
18613;DHT22;9436;52.152;21.032;2022-08-24T02:58:43;20.80;99.90
18613;DHT22;9436;52.152;21.032;2022-08-24T03:01:11;20.90;99.90
18613;DHT22;9436;52.152;21.032;2022-08-24T03:03:38;20.90;99.90
18613;DHT22;9436;52.152;21.032;2022-08-24T03:06:06;20.90;99.90
18613;DHT22;9436;52.152;21.032;2022-08-24T03:08:35;20.80;99.90
18613;DHT22;9436;52.152;21.032;2022-08-24T03:11:03;20.80;99.90
18613;DHT22;9436;52.152;21.032;2022-08-24T03:13:30;20.90;99.90
18613;DHT22;9436;52.152;21.032;2022-08-24T03:15:57;20.90;99.90
18613;DHT22;9436;52.152;21.032;2022-08-24T03:18:25;20.90;99.90
18613;DHT22;9436;52.152;21.032;2022-08-24T03:20:52;20.90;99.90
18613;DHT22;9436;52.152;21.032;2022-08-24T03:23:20;20.90;99.90
18613;DHT22;9436;52.152;21.032;2022-08-24T03:25:49;20.90;99.90
18613;DHT22;9436;52.152;21.032;2022-08-24T03:28:17;20.90;99.90
18613;DHT22;9436;52.152;21.032;2022-08-24T03:30:45;20.90;99.90
18613;DHT22;9436;52.152;21.032;2022-08-24T03:33:12;20.90;99.90
18613;DHT22;9436;52.152;21.032;2022-08-24T03:35:40;21.00;99.90
18613;DHT22;9436;52.152;21.032;2022-08-24T03:38:07;21.00;99.90
18613;DHT22;9436;52.152;21.032;2022-08-24T03:40:34;21.00;99.90
18613;DHT22;9436;52.152;21.032;2022-08-24T03:43:02;21.00;99.90
18613;DHT22;9436;52.152;21.032;2022-08-24T03:45:29;21.00;99.90
18613;DHT22;9436;52.152;21.032;2022-08-24T03:47:56;21.10;99.90
18613;DHT22;9436;52.152;21.032;2022-08-24T03:50:24;21.10;99.90
18613;DHT22;9436;52.152;21.032;2022-08-24T03:52:52;21.10;99.90
18613;DHT22;9436;52.152;21.032;2022-08-24T03:55:19;21.10;99.90
18613;DHT22;9436;52.152;21.032;2022-08-24T03:57:46;21.10;99.90
18613;DHT22;9436;52.152;21.032;2022-08-24T04:00:15;21.00;99.90
18613;DHT22;9436;52.152;21.032;2022-08-24T04:02:42;21.00;99.90
18613;DHT22;9436;52.152;21.032;2022-08-24T04:05:10;20.90;99.90
18613;DHT22;9436;52.152;21.032;2022-08-24T04:07:38;20.90;99.90
18613;DHT22;9436;52.152;21.032;2022-08-24T04:10:05;20.90;99.90
18613;DHT22;9436;52.152;21.032;2022-08-24T04:12:32;20.90;99.90
18613;DHT22;9436;52.152;21.032;2022-08-24T04:14:59;20.90;99.90
18613;DHT22;9436;52.152;21.032;2022-08-24T04:17:28;21.00;99.90
18613;DHT22;9436;52.152;21.032;2022-08-24T04:19:55;21.00;99.90
18613;DHT22;9436;52.152;21.032;2022-08-24T04:22:25;20.90;99.90
18613;DHT22;9436;52.152;21.032;2022-08-24T04:24:53;20.90;99.90
18613;DHT22;9436;52.152;21.032;2022-08-24T04:27:20;21.00;99.90
18613;DHT22;9436;52.152;21.032;2022-08-24T04:29:47;21.10;99.90
18613;DHT22;9436;52.152;21.032;2022-08-24T04:32:14;21.30;99.90
18613;DHT22;9436;52.152;21.032;2022-08-24T04:34:43;21.50;99.90
18613;DHT22;9436;52.152;21.032;2022-08-24T04:37:12;21.80;99.90
18613;DHT22;9436;52.152;21.032;2022-08-24T04:39:39;22.00;99.90
18613;DHT22;9436;52.152;21.032;2022-08-24T04:42:07;22.20;99.90
18613;DHT22;9436;52.152;21.032;2022-08-24T04:44:34;22.40;99.90
18613;DHT22;9436;52.152;21.032;2022-08-24T04:47:01;22.60;99.90
18613;DHT22;9436;52.152;21.032;2022-08-24T04:49:31;22.70;99.90
18613;DHT22;9436;52.152;21.032;2022-08-24T04:51:59;22.70;99.90
18613;DHT22;9436;52.152;21.032;2022-08-24T04:54:26;22.60;99.90
18613;DHT22;9436;52.152;21.032;2022-08-24T04:56:53;22.50;99.90
18613;DHT22;9436;52.152;21.032;2022-08-24T04:59:20;22.50;99.90
18613;DHT22;9436;52.152;21.032;2022-08-24T05:01:47;22.50;99.90
18613;DHT22;9436;52.152;21.032;2022-08-24T05:04:14;22.50;99.90
18613;DHT22;9436;52.152;21.032;2022-08-24T05:06:41;22.40;99.90
18613;DHT22;9436;52.152;21.032;2022-08-24T05:09:09;22.30;99.90
18613;DHT22;9436;52.152;21.032;2022-08-24T05:11:37;22.40;99.90
18613;DHT22;9436;52.152;21.032;2022-08-24T05:14:05;22.40;99.90
18613;DHT22;9436;52.152;21.032;2022-08-24T05:16:33;22.30;99.90
18613;DHT22;9436;52.152;21.032;2022-08-24T05:19:02;22.20;99.90
18613;DHT22;9436;52.152;21.032;2022-08-24T05:21:29;22.30;99.90
18613;DHT22;9436;52.152;21.032;2022-08-24T05:23:56;22.30;99.90
18613;DHT22;9436;52.152;21.032;2022-08-24T05:26:28;22.40;99.90
18613;DHT22;9436;52.152;21.032;2022-08-24T05:28:56;22.50;99.90
18613;DHT22;9436;52.152;21.032;2022-08-24T05:31:26;22.60;99.90
18613;DHT22;9436;52.152;21.032;2022-08-24T05:33:54;22.60;99.90
18613;DHT22;9436;52.152;21.032;2022-08-24T05:36:23;22.80;99.90
18613;DHT22;9436;52.152;21.032;2022-08-24T05:38:52;22.90;99.90
18613;DHT22;9436;52.152;21.032;2022-08-24T05:41:19;22.90;99.90
18613;DHT22;9436;52.152;21.032;2022-08-24T05:43:48;22.80;99.90
18613;DHT22;9436;52.152;21.032;2022-08-24T05:46:15;22.80;99.90
18613;DHT22;9436;52.152;21.032;2022-08-24T05:48:42;22.80;99.90
18613;DHT22;9436;52.152;21.032;2022-08-24T05:51:10;22.80;99.90
18613;DHT22;9436;52.152;21.032;2022-08-24T05:53:38;22.90;99.90
18613;DHT22;9436;52.152;21.032;2022-08-24T05:56:08;22.90;99.90
18613;DHT22;9436;52.152;21.032;2022-08-24T05:58:36;23.00;99.90
18613;DHT22;9436;52.152;21.032;2022-08-24T06:01:09;22.90;99.90
18613;DHT22;9436;52.152;21.032;2022-08-24T06:03:36;22.80;99.90
18613;DHT22;9436;52.152;21.032;2022-08-24T06:06:05;22.80;99.90
18613;DHT22;9436;52.152;21.032;2022-08-24T06:08:34;22.80;99.90
18613;DHT22;9436;52.152;21.032;2022-08-24T06:11:01;22.80;99.90
18613;DHT22;9436;52.152;21.032;2022-08-24T06:13:28;22.90;99.90
18613;DHT22;9436;52.152;21.032;2022-08-24T06:16:03;22.90;99.90
18613;DHT22;9436;52.152;21.032;2022-08-24T06:18:34;23.00;99.90
18613;DHT22;9436;52.152;21.032;2022-08-24T06:21:04;23.10;99.90
18613;DHT22;9436;52.152;21.032;2022-08-24T06:23:31;23.20;99.90
18613;DHT22;9436;52.152;21.032;2022-08-24T06:25:58;23.20;99.90
18613;DHT22;9436;52.152;21.032;2022-08-24T06:28:43;23.20;99.90
18613;DHT22;9436;52.152;21.032;2022-08-24T06:31:10;23.20;99.90
18613;DHT22;9436;52.152;21.032;2022-08-24T06:33:38;23.20;99.90
18613;DHT22;9436;52.152;21.032;2022-08-24T06:36:05;23.20;99.90
18613;DHT22;9436;52.152;21.032;2022-08-24T06:38:32;23.30;99.90
18613;DHT22;9436;52.152;21.032;2022-08-24T06:40:59;23.40;99.90
18613;DHT22;9436;52.152;21.032;2022-08-24T06:43:26;23.50;99.90
18613;DHT22;9436;52.152;21.032;2022-08-24T06:45:55;23.50;99.90
18613;DHT22;9436;52.152;21.032;2022-08-24T06:48:23;23.70;99.90
18613;DHT22;9436;52.152;21.032;2022-08-24T06:50:51;23.80;99.90
18613;DHT22;9436;52.152;21.032;2022-08-24T06:53:19;23.90;99.90
18613;DHT22;9436;52.152;21.032;2022-08-24T06:55:48;24.00;99.90
18613;DHT22;9436;52.152;21.032;2022-08-24T06:58:15;24.10;99.90
18613;DHT22;9436;52.152;21.032;2022-08-24T07:00:42;24.20;99.90
18613;DHT22;9436;52.152;21.032;2022-08-24T07:03:09;24.30;99.90
18613;DHT22;9436;52.152;21.032;2022-08-24T07:05:36;24.40;99.90
18613;DHT22;9436;52.152;21.032;2022-08-24T07:08:06;24.40;99.90
18613;DHT22;9436;52.152;21.032;2022-08-24T07:10:33;24.40;99.90
18613;DHT22;9436;52.152;21.032;2022-08-24T07:13:00;24.40;99.90
18613;DHT22;9436;52.152;21.032;2022-08-24T07:15:28;24.30;99.90
18613;DHT22;9436;52.152;21.032;2022-08-24T07:17:55;24.20;99.90
18613;DHT22;9436;52.152;21.032;2022-08-24T07:20:22;24.20;99.90
18613;DHT22;9436;52.152;21.032;2022-08-24T07:22:49;24.00;99.90
18613;DHT22;9436;52.152;21.032;2022-08-24T07:25:18;24.20;99.90
18613;DHT22;9436;52.152;21.032;2022-08-24T07:27:45;24.30;99.90
18613;DHT22;9436;52.152;21.032;2022-08-24T07:30:12;24.30;99.90
18613;DHT22;9436;52.152;21.032;2022-08-24T07:32:39;24.40;99.90
18613;DHT22;9436;52.152;21.032;2022-08-24T07:35:07;24.40;99.90
18613;DHT22;9436;52.152;21.032;2022-08-24T07:37:34;24.50;99.90
18613;DHT22;9436;52.152;21.032;2022-08-24T07:40:02;24.60;99.90
18613;DHT22;9436;52.152;21.032;2022-08-24T07:42:31;24.70;99.90
18613;DHT22;9436;52.152;21.032;2022-08-24T07:44:58;24.60;99.90
18613;DHT22;9436;52.152;21.032;2022-08-24T07:47:24;24.60;99.90
18613;DHT22;9436;52.152;21.032;2022-08-24T07:49:52;24.60;99.90
18613;DHT22;9436;52.152;21.032;2022-08-24T07:52:19;24.70;99.90
18613;DHT22;9436;52.152;21.032;2022-08-24T07:54:46;24.70;99.90
18613;DHT22;9436;52.152;21.032;2022-08-24T07:57:14;24.80;99.90
18613;DHT22;9436;52.152;21.032;2022-08-24T07:59:42;24.80;99.90
18613;DHT22;9436;52.152;21.032;2022-08-24T08:02:11;24.90;99.90
18613;DHT22;9436;52.152;21.032;2022-08-24T08:04:39;25.00;99.90
18613;DHT22;9436;52.152;21.032;2022-08-24T08:07:06;25.10;99.90
18613;DHT22;9436;52.152;21.032;2022-08-24T08:09:35;25.00;99.90
18613;DHT22;9436;52.152;21.032;2022-08-24T08:12:02;25.10;99.90
18613;DHT22;9436;52.152;21.032;2022-08-24T08:14:29;25.10;99.90
18613;DHT22;9436;52.152;21.032;2022-08-24T08:16:57;25.20;99.90
18613;DHT22;9436;52.152;21.032;2022-08-24T08:19:24;25.40;99.90
18613;DHT22;9436;52.152;21.032;2022-08-24T08:21:52;25.60;99.90
18613;DHT22;9436;52.152;21.032;2022-08-24T08:24:37;25.60;99.90
18613;DHT22;9436;52.152;21.032;2022-08-24T08:27:05;25.80;99.90
18613;DHT22;9436;52.152;21.032;2022-08-24T08:29:33;25.90;99.90
18613;DHT22;9436;52.152;21.032;2022-08-24T08:32:02;26.00;99.90
18613;DHT22;9436;52.152;21.032;2022-08-24T08:34:29;26.20;99.90
18613;DHT22;9436;52.152;21.032;2022-08-24T08:36:56;26.30;99.90
18613;DHT22;9436;52.152;21.032;2022-08-24T08:39:24;26.40;99.90
18613;DHT22;9436;52.152;21.032;2022-08-24T08:42:12;26.40;99.90
18613;DHT22;9436;52.152;21.032;2022-08-24T08:44:52;26.50;99.90
18613;DHT22;9436;52.152;21.032;2022-08-24T08:50:24;26.40;99.90
18613;DHT22;9436;52.152;21.032;2022-08-24T08:53:16;26.50;99.90
18613;DHT22;9436;52.152;21.032;2022-08-24T08:55:51;26.60;99.90
18613;DHT22;9436;52.152;21.032;2022-08-24T08:58:38;26.70;99.90
18613;DHT22;9436;52.152;21.032;2022-08-24T09:01:16;26.90;99.90
18613;DHT22;9436;52.152;21.032;2022-08-24T09:04:08;27.00;99.90
18613;DHT22;9436;52.152;21.032;2022-08-24T09:06:46;27.10;99.90
18613;DHT22;9436;52.152;21.032;2022-08-24T09:09:29;27.10;99.90
18613;DHT22;9436;52.152;21.032;2022-08-24T09:12:10;27.20;99.90
18613;DHT22;9436;52.152;21.032;2022-08-24T09:14:56;27.30;99.90
18613;DHT22;9436;52.152;21.032;2022-08-24T09:17:36;27.30;99.90
18613;DHT22;9436;52.152;21.032;2022-08-24T09:20:18;27.50;99.90
18613;DHT22;9436;52.152;21.032;2022-08-24T09:23:04;27.60;99.90
18613;DHT22;9436;52.152;21.032;2022-08-24T09:25:40;27.70;99.90
18613;DHT22;9436;52.152;21.032;2022-08-24T09:28:19;27.80;99.90
18613;DHT22;9436;52.152;21.032;2022-08-24T09:34:16;28.00;99.90
18613;DHT22;9436;52.152;21.032;2022-08-24T09:36:52;28.10;99.90
18613;DHT22;9436;52.152;21.032;2022-08-24T09:39:36;28.30;99.90
18613;DHT22;9436;52.152;21.032;2022-08-24T09:45:38;28.30;99.90
18613;DHT22;9436;52.152;21.032;2022-08-24T09:48:32;28.20;99.90
18613;DHT22;9436;52.152;21.032;2022-08-24T09:51:33;28.30;99.90
18613;DHT22;9436;52.152;21.032;2022-08-24T09:54:31;28.30;99.90
18613;DHT22;9436;52.152;21.032;2022-08-24T09:57:20;28.40;99.90
18613;DHT22;9436;52.152;21.032;2022-08-24T09:59:59;28.60;99.90
18613;DHT22;9436;52.152;21.032;2022-08-24T10:02:36;28.80;99.90
18613;DHT22;9436;52.152;21.032;2022-08-24T10:05:11;28.90;99.90
18613;DHT22;9436;52.152;21.032;2022-08-24T10:07:48;28.90;99.90
18613;DHT22;9436;52.152;21.032;2022-08-24T10:10:26;29.00;99.90
18613;DHT22;9436;52.152;21.032;2022-08-24T10:13:04;28.80;99.90
18613;DHT22;9436;52.152;21.032;2022-08-24T10:15:41;28.70;99.90
18613;DHT22;9436;52.152;21.032;2022-08-24T10:18:25;28.70;99.90
18613;DHT22;9436;52.152;21.032;2022-08-24T10:21:08;28.80;99.90
18613;DHT22;9436;52.152;21.032;2022-08-24T10:23:46;28.70;99.90
18613;DHT22;9436;52.152;21.032;2022-08-24T10:26:22;28.70;99.90
18613;DHT22;9436;52.152;21.032;2022-08-24T10:29:14;28.70;99.90
18613;DHT22;9436;52.152;21.032;2022-08-24T10:31:59;28.70;99.90
18613;DHT22;9436;52.152;21.032;2022-08-24T10:34:40;28.60;99.90
18613;DHT22;9436;52.152;21.032;2022-08-24T10:40:50;28.70;99.90
18613;DHT22;9436;52.152;21.032;2022-08-24T10:43:46;28.80;99.90
18613;DHT22;9436;52.152;21.032;2022-08-24T10:46:43;29.00;99.90
18613;DHT22;9436;52.152;21.032;2022-08-24T10:55:31;29.20;99.90
18613;DHT22;9436;52.152;21.032;2022-08-24T11:01:16;29.40;99.90
18613;DHT22;9436;52.152;21.032;2022-08-24T11:03:54;29.60;99.90
18613;DHT22;9436;52.152;21.032;2022-08-24T11:06:29;29.70;99.90
18613;DHT22;9436;52.152;21.032;2022-08-24T11:09:00;29.80;99.90
18613;DHT22;9436;52.152;21.032;2022-08-24T11:11:31;29.90;99.90
18613;DHT22;9436;52.152;21.032;2022-08-24T11:14:02;29.90;99.90
18613;DHT22;9436;52.152;21.032;2022-08-24T11:16:34;29.70;99.90
18613;DHT22;9436;52.152;21.032;2022-08-24T11:19:05;29.70;99.90
18613;DHT22;9436;52.152;21.032;2022-08-24T11:21:47;29.80;99.90
18613;DHT22;9436;52.152;21.032;2022-08-24T11:24:30;29.70;99.90
18613;DHT22;9436;52.152;21.032;2022-08-24T11:27:06;29.70;99.90
18613;DHT22;9436;52.152;21.032;2022-08-24T11:29:59;29.70;99.90
18613;DHT22;9436;52.152;21.032;2022-08-24T11:32:32;29.80;99.90
18613;DHT22;9436;52.152;21.032;2022-08-24T11:35:06;29.70;99.90
18613;DHT22;9436;52.152;21.032;2022-08-24T11:37:36;29.70;99.90
18613;DHT22;9436;52.152;21.032;2022-08-24T11:40:04;29.80;99.90
18613;DHT22;9436;52.152;21.032;2022-08-24T11:42:40;30.00;99.90
18613;DHT22;9436;52.152;21.032;2022-08-24T11:45:14;30.20;99.90
18613;DHT22;9436;52.152;21.032;2022-08-24T11:47:58;30.10;99.90
18613;DHT22;9436;52.152;21.032;2022-08-24T11:50:34;30.30;99.90
18613;DHT22;9436;52.152;21.032;2022-08-24T11:53:20;30.50;99.90
18613;DHT22;9436;52.152;21.032;2022-08-24T11:56:01;30.60;99.90
18613;DHT22;9436;52.152;21.032;2022-08-24T11:58:41;30.80;99.90
18613;DHT22;9436;52.152;21.032;2022-08-24T12:01:15;30.70;99.90
18613;DHT22;9436;52.152;21.032;2022-08-24T12:03:58;30.60;99.90
18613;DHT22;9436;52.152;21.032;2022-08-24T12:06:38;30.60;99.90
18613;DHT22;9436;52.152;21.032;2022-08-24T12:09:16;30.80;99.90
18613;DHT22;9436;52.152;21.032;2022-08-24T12:11:54;30.80;99.90
18613;DHT22;9436;52.152;21.032;2022-08-24T12:14:29;30.60;99.90
18613;DHT22;9436;52.152;21.032;2022-08-24T12:17:01;30.80;99.90
18613;DHT22;9436;52.152;21.032;2022-08-24T12:19:32;30.90;99.90
18613;DHT22;9436;52.152;21.032;2022-08-24T12:22:02;30.80;99.90
18613;DHT22;9436;52.152;21.032;2022-08-24T12:24:31;30.90;99.90
18613;DHT22;9436;52.152;21.032;2022-08-24T12:27:03;30.80;99.90
18613;DHT22;9436;52.152;21.032;2022-08-24T12:29:38;30.90;99.90
18613;DHT22;9436;52.152;21.032;2022-08-24T12:32:11;31.10;99.90
18613;DHT22;9436;52.152;21.032;2022-08-24T12:34:49;31.10;99.90
18613;DHT22;9436;52.152;21.032;2022-08-24T12:37:22;31.10;99.90
18613;DHT22;9436;52.152;21.032;2022-08-24T12:39:56;31.10;99.90
18613;DHT22;9436;52.152;21.032;2022-08-24T12:42:33;31.10;99.90
18613;DHT22;9436;52.152;21.032;2022-08-24T12:45:04;30.80;99.90
18613;DHT22;9436;52.152;21.032;2022-08-24T12:47:36;30.90;99.90
18613;DHT22;9436;52.152;21.032;2022-08-24T12:50:11;31.00;99.90
18613;DHT22;9436;52.152;21.032;2022-08-24T12:59:01;31.40;99.90
18613;DHT22;9436;52.152;21.032;2022-08-24T13:01:31;31.40;99.90
18613;DHT22;9436;52.152;21.032;2022-08-24T13:04:07;31.40;99.90
18613;DHT22;9436;52.152;21.032;2022-08-24T13:06:43;31.40;99.90
18613;DHT22;9436;52.152;21.032;2022-08-24T13:09:16;31.40;99.90
18613;DHT22;9436;52.152;21.032;2022-08-24T13:11:51;31.50;99.90
18613;DHT22;9436;52.152;21.032;2022-08-24T13:14:20;31.60;99.90
18613;DHT22;9436;52.152;21.032;2022-08-24T13:17:08;31.70;99.90
18613;DHT22;9436;52.152;21.032;2022-08-24T13:19:38;31.70;99.90
18613;DHT22;9436;52.152;21.032;2022-08-24T13:25:37;31.60;99.90
18613;DHT22;9436;52.152;21.032;2022-08-24T13:28:10;31.70;99.90
18613;DHT22;9436;52.152;21.032;2022-08-24T13:31:17;31.80;99.90
18613;DHT22;9436;52.152;21.032;2022-08-24T13:33:48;31.80;99.90
18613;DHT22;9436;52.152;21.032;2022-08-24T13:45:32;31.60;99.90
18613;DHT22;9436;52.152;21.032;2022-08-24T13:48:18;31.40;99.90
18613;DHT22;9436;52.152;21.032;2022-08-24T13:53:47;31.30;99.90
18613;DHT22;9436;52.152;21.032;2022-08-24T13:56:33;31.20;99.90
18613;DHT22;9436;52.152;21.032;2022-08-24T13:59:07;31.20;99.90
18613;DHT22;9436;52.152;21.032;2022-08-24T14:01:49;31.40;99.90
18613;DHT22;9436;52.152;21.032;2022-08-24T14:04:34;31.40;99.90
18613;DHT22;9436;52.152;21.032;2022-08-24T14:07:08;31.50;99.90
18613;DHT22;9436;52.152;21.032;2022-08-24T14:09:45;31.50;99.90
18613;DHT22;9436;52.152;21.032;2022-08-24T14:12:21;31.50;99.90
18613;DHT22;9436;52.152;21.032;2022-08-24T14:15:02;31.40;99.90
18613;DHT22;9436;52.152;21.032;2022-08-24T14:17:40;31.50;99.90
18613;DHT22;9436;52.152;21.032;2022-08-24T14:20:51;31.40;99.90
18613;DHT22;9436;52.152;21.032;2022-08-24T14:23:33;31.40;99.90
18613;DHT22;9436;52.152;21.032;2022-08-24T14:29:45;31.20;99.90
18613;DHT22;9436;52.152;21.032;2022-08-24T14:32:42;31.10;99.90
18613;DHT22;9436;52.152;21.032;2022-08-24T14:35:32;31.00;99.90
18613;DHT22;9436;52.152;21.032;2022-08-24T14:41:00;30.90;99.90
18613;DHT22;9436;52.152;21.032;2022-08-24T14:43:33;30.90;99.90
18613;DHT22;9436;52.152;21.032;2022-08-24T14:46:12;30.80;99.90
18613;DHT22;9436;52.152;21.032;2022-08-24T14:48:56;30.60;99.90
18613;DHT22;9436;52.152;21.032;2022-08-24T14:51:40;30.50;99.90
18613;DHT22;9436;52.152;21.032;2022-08-24T14:54:19;30.60;99.90
18613;DHT22;9436;52.152;21.032;2022-08-24T14:57:01;30.60;99.90
18613;DHT22;9436;52.152;21.032;2022-08-24T14:59:40;30.60;99.90
18613;DHT22;9436;52.152;21.032;2022-08-24T15:02:55;30.60;99.90
18613;DHT22;9436;52.152;21.032;2022-08-24T15:05:38;30.50;99.90
18613;DHT22;9436;52.152;21.032;2022-08-24T15:08:09;30.40;99.90
18613;DHT22;9436;52.152;21.032;2022-08-24T15:10:40;30.40;99.90
18613;DHT22;9436;52.152;21.032;2022-08-24T15:13:11;30.30;99.90
18613;DHT22;9436;52.152;21.032;2022-08-24T15:15:43;30.30;99.90
18613;DHT22;9436;52.152;21.032;2022-08-24T15:18:24;30.40;99.90
18613;DHT22;9436;52.152;21.032;2022-08-24T15:21:03;30.50;99.90
18613;DHT22;9436;52.152;21.032;2022-08-24T15:23:44;30.50;99.90
18613;DHT22;9436;52.152;21.032;2022-08-24T15:26:20;30.50;99.90
18613;DHT22;9436;52.152;21.032;2022-08-24T15:28:50;30.60;99.90
18613;DHT22;9436;52.152;21.032;2022-08-24T15:31:21;30.60;99.90
18613;DHT22;9436;52.152;21.032;2022-08-24T15:33:52;30.70;99.90
18613;DHT22;9436;52.152;21.032;2022-08-24T15:36:21;30.70;99.90
18613;DHT22;9436;52.152;21.032;2022-08-24T15:38:48;30.70;99.90
18613;DHT22;9436;52.152;21.032;2022-08-24T15:41:20;30.60;99.90
18613;DHT22;9436;52.152;21.032;2022-08-24T15:43:52;30.60;99.90
18613;DHT22;9436;52.152;21.032;2022-08-24T15:46:25;30.60;99.90
18613;DHT22;9436;52.152;21.032;2022-08-24T15:48:57;30.50;99.90
18613;DHT22;9436;52.152;21.032;2022-08-24T15:51:35;30.20;99.90
18613;DHT22;9436;52.152;21.032;2022-08-24T15:54:15;30.00;99.90
18613;DHT22;9436;52.152;21.032;2022-08-24T15:56:45;29.80;99.90
18613;DHT22;9436;52.152;21.032;2022-08-24T15:59:23;29.60;99.90
18613;DHT22;9436;52.152;21.032;2022-08-24T16:02:16;29.40;99.90
18613;DHT22;9436;52.152;21.032;2022-08-24T16:05:09;29.30;99.90
18613;DHT22;9436;52.152;21.032;2022-08-24T16:10:39;29.20;99.90
18613;DHT22;9436;52.152;21.032;2022-08-24T16:13:11;29.10;99.90
18613;DHT22;9436;52.152;21.032;2022-08-24T16:15:45;29.00;99.90
18613;DHT22;9436;52.152;21.032;2022-08-24T16:18:12;29.00;99.90
18613;DHT22;9436;52.152;21.032;2022-08-24T16:20:40;29.00;99.90
18613;DHT22;9436;52.152;21.032;2022-08-24T16:23:10;28.90;99.90
18613;DHT22;9436;52.152;21.032;2022-08-24T16:25:41;28.70;99.90
18613;DHT22;9436;52.152;21.032;2022-08-24T16:28:10;28.70;99.90
18613;DHT22;9436;52.152;21.032;2022-08-24T16:30:45;28.70;99.90
18613;DHT22;9436;52.152;21.032;2022-08-24T16:33:40;28.70;99.90
18613;DHT22;9436;52.152;21.032;2022-08-24T16:36:09;28.70;99.90
18613;DHT22;9436;52.152;21.032;2022-08-24T16:38:37;28.70;99.90
18613;DHT22;9436;52.152;21.032;2022-08-24T16:41:08;28.70;99.90
18613;DHT22;9436;52.152;21.032;2022-08-24T16:43:38;28.70;99.90
18613;DHT22;9436;52.152;21.032;2022-08-24T16:46:07;28.70;99.90
18613;DHT22;9436;52.152;21.032;2022-08-24T16:48:35;28.70;99.90
18613;DHT22;9436;52.152;21.032;2022-08-24T16:51:02;28.70;99.90
18613;DHT22;9436;52.152;21.032;2022-08-24T16:53:29;28.60;99.90
18613;DHT22;9436;52.152;21.032;2022-08-24T16:55:56;28.60;99.90
18613;DHT22;9436;52.152;21.032;2022-08-24T16:58:30;28.60;99.90